Details From UNTT - Tomsk
To UASP - Pavlodar
Flight Number -
Tags Standard
Created
Modified
Stats Distance 480 nm / 888 km
Max Altitude 39,698 ft / 12,100 m
Waypoints 16
Social Downloads 2
Likes 0
Share VATSIM

Download

Looking for another format? Having issues loading an existing format? Contact us
Advertisement - Login to hide

Notes

None

Route

UNTT TVG02 W02 NALED +55.07_+085.54 VAGER TUMKO PEMIK SR MISLU LAGMO +51.84_+079.25 DOSAK PW10 TVG213 UASP

ID Type Via Altitude (ft/m) Position (lat/lon) Dist (leg/tot) Name
O UNTT APT - 597 / 182 56.38307 / 85.21066 - / 0 nm
TVG02 FIX - 3,942 / 1,202 56.29666 / 85.10833 6 / 6 nm
W02 FIX - 5,614 / 1,711 56.24833 / 85.05833 3 / 9 nm
NALED FIX - 10,000 / 3,048 55.95334 / 85.56500 24 / 34 nm
+55.07_+085.54 DME - 39,698 / 12,100 55.07013 / 85.53746 53 / 87 nm
VAGER FIX - 39,698 / 12,100 54.96667 / 85.55000 6 / 93 nm
TUMKO FIX - 39,698 / 12,100 53.80000 / 83.53333 99 / 192 nm
PEMIK FIX - 39,698 / 12,100 53.63167 / 83.35167 11 / 204 nm
SR NDB - 39,698 / 12,100 53.30000 / 83.00000 23 / 228 nm PAVLOVSK NDB
MISLU FIX - 39,698 / 12,100 52.83500 / 81.75000 53 / 281 nm
LAGMO FIX - 39,698 / 12,100 51.83167 / 79.25000 109 / 391 nm
+51.84_+079.25 DME - 39,698 / 12,100 51.83506 / 79.24960 0 / 391 nm
DOSAK FIX - 3,900 / 1,189 52.01222 / 78.20333 40 / 431 nm
PW10 FIX - 1,650 / 503 52.29833 / 77.27500 38 / 469 nm
TVG213 FIX - 1,650 / 503 52.25506 / 77.16331 4 / 474 nm
O UASP APT - 396 / 121 52.19534 / 77.07331 4 / 479 nm

Altitude Profile

Advertisement - Login to hide

Weather


0- 5 10 15 20 25 30 35+ Temperature / °C

Clouds and Precipitation
Forecast for 2019-10-17 06:00 UTC. Updated 3 hours ago

Ground ~20,000 ft ~40,000 ft Winds

UNTT

Details ICAO UNTT (TOF)
Name Tomsk/Bogashevo
Region Russia
Timezone Asia/Novosibirsk (UTC+7.0)
Stats Elevation 597 ft / 182 m (AMSL)
Location 56.383100° 85.210500°
Runways 1
Magnetic Variation 8.413° E

METAR

UNTT 170600Z 25005MPS 5000 BR SCT007 BKN017CB 06/05 Q1001 R21/290150 NOSIG RMK QFE736

Decode

TAF

Not found

Departure Runways

ID Width Length Bearing (true/mag) Surface Threshold Overrun Markings Lighting
03 164 ft / 50 m 8,209 ft / 2,502 m 33.35° / 24.94° ASPHALT 0 ft / 0 m 0 ft / 0 m PREC-APP EDGE THRESHOLD MALS
21 164 ft / 50 m 8,209 ft / 2,502 m 213.37° / 204.96° ASPHALT 0 ft / 0 m 0 ft / 0 m PREC-APP EDGE THRESHOLD CALVERT

UASP

Details ICAO UASP (PWQ)
Name PAVLODAR
Region Kazakhstan and Kyrgyzstan
Timezone Asia/Almaty (UTC+6.0)
Stats Elevation 410 ft / 125 m (AMSL)
Location 52.194900° 77.074000°
Runways 1
Magnetic Variation 9.300° E

METAR

UASP 170600Z 28005MPS 9999 -SHRA OVC010CB 04/03 Q1011 R21/0///70 NOSIG RMK QFE747/0996

Decode

TAF

Not found

Destination Runways

ID Width Length Bearing (true/mag) Surface Threshold Overrun Markings Lighting
03 148 ft / 45 m 8,145 ft / 2,483 m 42.75° / 33.45° CONCRETE 0 ft / 0 m 0 ft / 0 m APP EDGE THRESHOLD SALS
21 148 ft / 45 m 8,145 ft / 2,483 m 222.77° / 213.47° CONCRETE 0 ft / 0 m 0 ft / 0 m APP EDGE THRESHOLD SALS